Terminal Aerodrome Forecast
Issued by NWS

Home | Current Version | Previous Version | Text Only | Print | Product List | Glossary On
Versions: 1 2 3 4 5 6 7 8 9 10 11 12 13 14 15
000
FTUS45 KGJT 222339
TAFDRO
TAF
KDRO 222339Z 2300/2324 05008KT P6SM VCTS BKN110CB
      TEMPO 2300/2302 09010G20KT -SHRA BKN080
     FM230400 05006KT P6SM BKN120
     FM230900 VRB03KT P6SM SCT110
     FM231900 11005KT P6SM BKN100=

USA.gov is the U.S. government's official web portal to all federal, state and local government web resources and services.